createdAt,value
2018-04-15T00:00:21.769Z,61.23
2018-04-15T00:02:50.194Z,61.40
2018-04-15T00:05:18.590Z,61.67
2018-04-15T00:07:47.044Z,59.53
2018-04-15T00:10:15.565Z,59.13
2018-04-15T00:12:43.954Z,60.18
2018-04-15T00:15:12.745Z,59.44
2018-04-15T00:17:41.148Z,59.21
2018-04-15T00:20:09.691Z,59.86
2018-04-15T00:22:38.204Z,59.00
2018-04-15T00:25:06.568Z,59.11
2018-04-15T00:27:34.957Z,59.25
2018-04-15T00:30:03.328Z,58.61
2018-04-15T00:32:31.766Z,60.14
2018-04-15T00:35:00.140Z,58.92
2018-04-15T00:37:28.515Z,59.55
2018-04-15T00:39:56.878Z,59.63
2018-04-15T00:42:25.379Z,60.24
2018-04-15T00:44:53.819Z,58.75
2018-04-15T00:47:22.183Z,60.64
2018-04-15T00:49:50.582Z,58.93
2018-04-15T00:52:18.959Z,59.12
2018-04-15T00:54:47.311Z,60.46
2018-04-15T00:57:15.694Z,58.74
2018-04-15T00:59:44.112Z,58.75
2018-04-15T01:02:12.702Z,59.56
2018-04-15T01:04:41.789Z,59.30
2018-04-15T01:07:10.153Z,58.65
2018-04-15T01:09:38.533Z,60.65
2018-04-15T01:12:07.074Z,59.60
2018-04-15T01:14:35.440Z,60.07
2018-04-15T01:17:03.818Z,59.47
2018-04-15T01:19:32.296Z,58.42
2018-04-15T01:22:00.684Z,57.37
2018-04-15T01:24:29.079Z,59.25
2018-04-15T01:26:57.546Z,60.33
2018-04-15T01:29:25.959Z,57.99
2018-04-15T01:31:54.351Z,58.78
2018-04-15T01:34:22.784Z,58.16
2018-04-15T01:36:51.361Z,58.26
2018-04-15T01:39:19.768Z,58.00
2018-04-15T01:41:48.194Z,58.22
2018-04-15T01:44:16.694Z,57.57
2018-04-15T01:46:45.090Z,57.58
2018-04-15T01:49:13.514Z,57.72
2018-04-15T01:51:42.108Z,57.09
2018-04-15T01:54:10.510Z,58.77
2018-04-15T01:56:38.909Z,57.88
2018-04-15T01:59:07.428Z,57.72
2018-04-15T02:01:35.834Z,58.38
2018-04-15T02:04:04.432Z,59.65
2018-04-15T02:06:32.932Z,58.45
2018-04-15T02:09:01.406Z,59.02
2018-04-15T02:11:29.771Z,58.46
2018-04-15T02:13:58.138Z,57.93
2018-04-15T02:16:26.649Z,58.46
2018-04-15T02:18:55.032Z,56.99
2018-04-15T02:21:23.389Z,59.31
2018-04-15T02:23:51.766Z,58.57
2018-04-15T02:26:20.139Z,58.82
2018-04-15T02:28:48.537Z,57.82
2018-04-15T02:31:16.932Z,59.29
2018-04-15T02:33:45.487Z,57.79
2018-04-15T02:36:13.851Z,58.50
2018-04-15T02:38:42.212Z,57.03
2018-04-15T02:41:10.577Z,57.43
2018-04-15T02:43:38.934Z,60.39
2018-04-15T02:46:07.411Z,58.70
2018-04-15T02:48:35.770Z,57.77
2018-04-15T02:51:04.151Z,58.88
2018-04-15T02:53:32.510Z,59.33
2018-04-15T02:56:00.878Z,57.55
2018-04-15T02:58:29.353Z,58.23
2018-04-15T03:00:57.769Z,58.16
2018-04-15T03:03:26.150Z,58.12
2018-04-15T03:05:54.608Z,58.87
2018-04-15T03:08:23.076Z,59.29
2018-04-15T03:10:51.474Z,59.17
2018-04-15T03:13:19.876Z,58.47
2018-04-15T03:15:48.270Z,57.79
2018-04-15T03:18:16.745Z,60.04
2018-04-15T03:20:45.127Z,58.91
2018-04-15T03:23:13.524Z,59.94
2018-04-15T03:25:41.888Z,59.39
2018-04-15T03:28:10.334Z,61.18
2018-04-15T03:30:39.622Z,60.62
2018-04-15T03:33:08.216Z,60.68
2018-04-15T03:35:36.599Z,60.22
2018-04-15T03:38:05.008Z,59.85
2018-04-15T03:40:33.388Z,60.62
2018-04-15T03:43:01.795Z,58.58
2018-04-15T03:45:30.379Z,58.68
2018-04-15T03:47:58.779Z,58.26
2018-04-15T03:50:27.154Z,59.07
2018-04-15T03:52:55.982Z,58.94
2018-04-15T03:55:24.611Z,59.33
2018-04-15T03:57:53.126Z,59.13
2018-04-15T04:00:21.535Z,60.11
2018-04-15T04:02:49.931Z,60.02
2018-04-15T04:05:18.376Z,61.89
2018-04-15T04:07:46.794Z,61.20
2018-04-15T04:10:15.319Z,59.43
2018-04-15T04:12:43.727Z,60.12
2018-04-15T04:15:12.128Z,60.91
2018-04-15T04:17:52.191Z,61.39
2018-04-15T04:20:32.342Z,60.39
2018-04-15T04:23:12.365Z,62.27
2018-04-15T04:25:52.509Z,61.59
2018-04-15T04:28:21.831Z,63.10
2018-04-15T04:30:50.258Z,61.98
2018-04-15T04:33:18.608Z,62.17
2018-04-15T04:35:47.013Z,63.81
2018-04-15T04:38:15.439Z,63.05
2018-04-15T04:40:43.807Z,63.04
2018-04-15T04:43:12.196Z,61.73
2018-04-15T04:45:40.617Z,60.75
2018-04-15T04:48:09.099Z,61.50
2018-04-15T04:50:37.618Z,61.53
2018-04-15T04:53:05.984Z,62.84
2018-04-15T04:55:34.358Z,62.47
2018-04-15T04:58:02.729Z,61.90
2018-04-15T05:00:31.148Z,61.87
2018-04-15T05:02:59.783Z,62.62
2018-04-15T05:05:28.223Z,62.72
2018-04-15T05:07:56.786Z,62.22
2018-04-15T05:10:25.204Z,62.42
2018-04-15T05:12:53.610Z,62.34
2018-04-15T05:15:22.166Z,63.75
2018-04-15T05:17:50.621Z,62.55
2018-04-15T05:20:19.080Z,63.80
2018-04-15T05:22:47.527Z,63.30
2018-04-15T05:25:15.969Z,61.97
2018-04-15T05:27:44.411Z,62.50
2018-04-15T05:30:12.825Z,62.51
2018-04-15T05:32:41.230Z,62.50
2018-04-15T05:35:09.649Z,63.13
2018-04-15T05:37:38.083Z,61.50
2018-04-15T05:40:06.543Z,61.60
2018-04-15T05:42:34.987Z,63.38
2018-04-15T05:45:03.394Z,63.61
2018-04-15T05:47:31.811Z,63.72
2018-04-15T05:50:00.218Z,63.43
2018-04-15T05:52:28.646Z,63.69
2018-04-15T05:54:57.048Z,64.03
2018-04-15T05:57:25.653Z,62.92
2018-04-15T05:59:54.062Z,62.33
2018-04-15T06:02:22.652Z,61.90
2018-04-15T06:04:51.047Z,62.10
2018-04-15T06:07:19.459Z,63.82
2018-04-15T06:09:47.843Z,62.41
2018-04-15T06:12:16.228Z,62.33
2018-04-15T06:14:44.660Z,62.08
2018-04-15T06:17:13.077Z,62.46
2018-04-15T06:19:41.479Z,62.11
2018-04-15T06:22:09.889Z,64.39
2018-04-15T06:24:38.334Z,64.69
2018-04-15T06:27:06.697Z,64.37
2018-04-15T06:29:35.096Z,63.74
2018-04-15T06:32:03.551Z,63.31
2018-04-15T06:34:32.003Z,62.04
2018-04-15T06:37:00.394Z,62.01
2018-04-15T06:39:28.809Z,61.19
2018-04-15T06:41:57.170Z,61.43
2018-04-15T06:44:25.539Z,61.87
2018-04-15T06:46:53.950Z,61.82
2018-04-15T06:49:22.406Z,62.09
2018-04-15T06:51:50.823Z,61.76
2018-04-15T06:54:19.552Z,60.98
2018-04-15T06:56:48.003Z,62.59
2018-04-15T06:59:16.363Z,61.81
2018-04-15T07:01:44.849Z,59.82
2018-04-15T07:04:13.231Z,61.38
2018-04-15T07:06:41.655Z,61.58
2018-04-15T07:09:10.096Z,61.25
2018-04-15T07:11:38.513Z,62.41
2018-04-15T07:14:06.949Z,61.22
2018-04-15T07:16:35.758Z,61.58
2018-04-15T07:19:04.567Z,59.20
2018-04-15T07:21:32.960Z,58.94
2018-04-15T07:24:02.210Z,58.79
2018-04-15T07:26:30.811Z,57.56
2018-04-15T07:28:59.218Z,56.61
2018-04-15T07:31:27.714Z,55.67
2018-04-15T07:33:56.137Z,58.21
2018-04-15T07:36:24.659Z,61.16
2018-04-15T07:38:53.046Z,60.88
2018-04-15T07:41:21.476Z,59.91
2018-04-15T07:43:50.096Z,59.55
2018-04-15T07:46:19.014Z,58.90
2018-04-15T07:48:47.599Z,59.08
2018-04-15T07:51:16.081Z,57.42
2018-04-15T07:53:44.569Z,58.83
2018-04-15T07:56:13.018Z,59.64
2018-04-15T07:58:41.421Z,59.29
2018-04-15T08:01:09.885Z,58.81
2018-04-15T08:03:38.304Z,59.51
2018-04-15T08:06:06.943Z,58.52
2018-04-15T08:08:35.782Z,59.15
2018-04-15T08:11:04.212Z,60.74
2018-04-15T08:13:33.277Z,60.59
2018-04-15T08:16:01.945Z,59.29
2018-04-15T08:18:30.723Z,58.45
2018-04-15T08:20:59.175Z,59.63
2018-04-15T08:23:27.551Z,59.78
2018-04-15T08:25:56.047Z,59.43
2018-04-15T08:28:24.446Z,59.37
2018-04-15T08:30:52.895Z,60.56
2018-04-15T08:33:21.636Z,57.88
2018-04-15T08:35:50.019Z,57.95
2018-04-15T08:38:19.280Z,56.36
2018-04-15T08:40:47.643Z,58.43
2018-04-15T08:43:16.180Z,58.42
2018-04-15T08:45:44.602Z,57.06
2018-04-15T08:48:12.978Z,59.54
2018-04-15T08:50:41.350Z,60.56
2018-04-15T08:53:09.768Z,58.07
2018-04-15T08:55:38.256Z,58.85
2018-04-15T08:58:07.005Z,60.03
2018-04-15T09:00:35.715Z,60.64
2018-04-15T09:03:04.479Z,60.12
2018-04-15T09:05:32.886Z,60.07
2018-04-15T09:08:01.397Z,60.69
2018-04-15T09:10:29.808Z,59.32
2018-04-15T09:12:58.283Z,60.95
2018-04-15T09:15:26.680Z,59.58
2018-04-15T09:17:55.102Z,60.47
2018-04-15T09:20:23.533Z,58.96
2018-04-15T09:22:52.220Z,55.23
2018-04-15T09:25:20.910Z,55.60
2018-04-15T09:27:49.343Z,52.41
2018-04-15T09:30:17.757Z,50.11
2018-04-15T09:32:46.137Z,47.45
2018-04-15T09:35:15.929Z,44.93
2018-04-15T09:37:44.897Z,47.11
2018-04-15T09:40:14.234Z,48.25
2018-04-15T09:42:42.683Z,51.37
2018-04-15T09:45:11.155Z,49.29
2018-04-15T09:47:39.779Z,47.76
2018-04-15T09:50:08.247Z,47.49
2018-04-15T09:52:36.645Z,47.78
2018-04-15T09:55:05.141Z,46.13
2018-04-15T09:57:33.591Z,48.54
2018-04-15T10:00:01.986Z,49.50
2018-04-15T10:02:30.371Z,51.98
2018-04-15T10:04:58.736Z,51.52
2018-04-15T10:07:27.177Z,49.74
2018-04-15T10:09:55.537Z,50.09
2018-04-15T10:12:24.219Z,49.54
2018-04-15T10:14:52.607Z,49.75
2018-04-15T10:17:21.232Z,47.90
2018-04-15T10:19:49.668Z,43.64
2018-04-15T10:22:18.091Z,40.82
2018-04-15T10:24:46.537Z,38.90
2018-04-15T10:27:15.843Z,35.80
2018-04-15T10:29:44.788Z,36.76
2018-04-15T10:32:13.228Z,35.90
2018-04-15T10:34:41.716Z,36.17
2018-04-15T10:37:10.275Z,37.81
2018-04-15T10:39:40.045Z,40.46
2018-04-15T10:42:08.564Z,40.53
2018-04-15T10:44:37.018Z,44.47
2018-04-15T10:47:05.417Z,43.77
2018-04-15T10:49:33.871Z,41.23
2018-04-15T10:52:02.291Z,41.24
2018-04-15T10:54:30.710Z,38.11
2018-04-15T10:56:59.164Z,40.68
2018-04-15T10:59:27.540Z,38.09
2018-04-15T11:01:56.283Z,37.24
2018-04-15T11:04:24.668Z,35.24
2018-04-15T11:06:53.050Z,35.22
2018-04-15T11:09:21.478Z,34.48
2018-04-15T11:11:49.873Z,35.59
2018-04-15T11:14:18.258Z,37.05
2018-04-15T11:16:46.646Z,35.35
2018-04-15T11:19:15.115Z,36.30
2018-04-15T11:21:43.553Z,36.83
2018-04-15T11:24:11.948Z,37.55
2018-04-15T11:26:40.458Z,35.15
2018-04-15T11:29:08.852Z,34.42
2018-04-15T11:31:37.217Z,32.40
2018-04-15T11:34:05.675Z,32.67
2018-04-15T11:36:34.065Z,32.18
2018-04-15T11:39:02.485Z,33.92
2018-04-15T11:41:30.946Z,34.38
2018-04-15T11:43:59.339Z,35.53
2018-04-15T11:46:27.749Z,37.61
2018-04-15T11:48:56.298Z,36.53
2018-04-15T11:51:24.754Z,36.60
2018-04-15T11:53:53.434Z,34.54
2018-04-15T11:56:21.965Z,34.43
2018-04-15T11:58:50.388Z,33.69
2018-04-15T12:01:18.882Z,33.75
2018-04-15T12:03:47.302Z,32.50
2018-04-15T12:06:15.725Z,34.34
2018-04-15T12:08:44.148Z,36.81
2018-04-15T12:11:12.550Z,35.60
2018-04-15T12:13:41.059Z,38.14
2018-04-15T12:16:09.510Z,35.96
2018-04-15T12:18:37.967Z,37.08
2018-04-15T12:21:06.432Z,37.78
2018-04-15T12:23:34.849Z,37.11
2018-04-15T12:26:03.359Z,37.82
2018-04-15T12:28:31.803Z,38.87
2018-04-15T12:31:00.453Z,39.11
2018-04-15T12:33:28.887Z,39.49
2018-04-15T12:35:57.398Z,39.15
2018-04-15T12:38:25.878Z,40.51
2018-04-15T12:40:54.388Z,39.75
2018-04-15T12:43:22.812Z,40.71
2018-04-15T12:45:51.360Z,38.71
2018-04-15T12:48:19.807Z,38.98
2018-04-15T12:50:48.504Z,38.34
2018-04-15T12:53:16.962Z,38.40
2018-04-15T12:55:45.435Z,38.60
2018-04-15T12:58:13.981Z,38.51
2018-04-15T13:00:42.517Z,38.07
2018-04-15T13:03:10.930Z,38.80
2018-04-15T13:05:39.355Z,36.93
2018-04-15T13:08:08.064Z,37.14
2018-04-15T13:10:36.502Z,38.27
2018-04-15T13:13:04.975Z,36.91
2018-04-15T13:15:33.442Z,37.29
2018-04-15T13:18:01.935Z,37.63
2018-04-15T13:20:30.391Z,38.46
2018-04-15T13:22:58.946Z,37.57
2018-04-15T13:25:27.381Z,34.79
2018-04-15T13:27:55.790Z,34.20
2018-04-15T13:30:24.158Z,35.46
2018-04-15T13:32:52.556Z,36.11
2018-04-15T13:35:20.921Z,33.82
2018-04-15T13:37:49.365Z,33.37
2018-04-15T13:40:17.830Z,34.35
2018-04-15T13:42:46.354Z,34.92
2018-04-15T13:45:14.726Z,37.40
2018-04-15T13:47:43.187Z,36.24
2018-04-15T13:50:11.612Z,35.36
2018-04-15T13:52:40.088Z,35.60
2018-04-15T13:55:08.532Z,34.95
2018-04-15T13:57:37.012Z,34.79
2018-04-15T14:00:05.538Z,33.43
2018-04-15T14:02:33.955Z,32.20
2018-04-15T14:05:02.381Z,32.88
2018-04-15T14:07:30.922Z,33.54
2018-04-15T14:09:59.369Z,33.93
2018-04-15T14:12:27.834Z,33.18
2018-04-15T14:14:56.379Z,34.02
2018-04-15T14:17:24.848Z,34.81
2018-04-15T14:19:53.793Z,33.70
2018-04-15T14:22:22.223Z,34.50
2018-04-15T14:24:50.782Z,33.58
2018-04-15T14:27:19.221Z,34.19
2018-04-15T14:29:47.691Z,33.84
2018-04-15T14:32:16.121Z,33.48
2018-04-15T14:34:44.545Z,33.27
2018-04-15T14:37:12.981Z,34.72
2018-04-15T14:39:41.395Z,34.18
2018-04-15T14:42:10.191Z,34.64
2018-04-15T14:44:38.597Z,33.10
2018-04-15T14:47:07.206Z,32.41
2018-04-15T14:49:35.641Z,32.11
2018-04-15T14:52:05.072Z,32.49
2018-04-15T14:54:33.844Z,33.48
2018-04-15T14:57:02.384Z,33.12
2018-04-15T14:59:30.846Z,33.35
2018-04-15T15:01:59.348Z,34.11
2018-04-15T15:04:27.750Z,33.20
2018-04-15T15:06:56.239Z,34.26
2018-04-15T15:09:25.260Z,35.35
2018-04-15T15:11:54.980Z,33.85
2018-04-15T15:14:23.471Z,35.90
2018-04-15T15:16:51.889Z,34.05
2018-04-15T15:19:20.376Z,34.15
2018-04-15T15:21:48.790Z,35.72
2018-04-15T15:24:17.223Z,36.72
2018-04-15T15:26:45.648Z,35.06
2018-04-15T15:29:14.047Z,35.53
2018-04-15T15:31:42.481Z,35.18
2018-04-15T15:34:10.902Z,35.05
2018-04-15T15:36:39.405Z,34.30
2018-04-15T15:39:07.871Z,34.21
2018-04-15T15:41:36.281Z,34.24
2018-04-15T15:44:04.687Z,34.36
2018-04-15T15:46:33.106Z,35.00
2018-04-15T15:49:01.481Z,33.66
2018-04-15T15:51:30.158Z,34.49
2018-04-15T15:53:58.568Z,34.83
2018-04-15T15:56:27.010Z,35.73
2018-04-15T15:58:56.042Z,34.86
2018-04-15T16:01:24.424Z,35.24
2018-04-15T16:03:52.816Z,35.26
2018-04-15T16:06:21.230Z,35.26
2018-04-15T16:08:49.658Z,34.72
2018-04-15T16:11:18.049Z,34.94
2018-04-15T16:13:46.508Z,36.04
2018-04-15T16:16:14.986Z,34.39
2018-04-15T16:18:43.425Z,34.43
2018-04-15T16:21:11.790Z,34.68
2018-04-15T16:23:40.192Z,34.90
2018-04-15T16:26:08.565Z,35.50
2018-04-15T16:28:37.091Z,36.42
2018-04-15T16:31:05.493Z,36.61
2018-04-15T16:33:33.932Z,36.60
2018-04-15T16:36:02.344Z,36.19
2018-04-15T16:38:30.738Z,35.28
2018-04-15T16:40:59.120Z,35.83
2018-04-15T16:43:27.575Z,36.15
2018-04-15T16:45:55.982Z,35.31
2018-04-15T16:48:24.692Z,35.40
2018-04-15T16:50:53.168Z,35.40
2018-04-15T16:53:21.551Z,35.88
2018-04-15T16:55:49.912Z,36.69
2018-04-15T16:58:18.674Z,36.37
2018-04-15T17:00:47.221Z,35.86
2018-04-15T17:03:15.656Z,35.37
2018-04-15T17:05:44.042Z,35.63
2018-04-15T17:08:12.431Z,36.04
2018-04-15T17:10:41.240Z,36.48
2018-04-15T17:13:09.652Z,36.50
2018-04-15T17:15:38.084Z,36.55
2018-04-15T17:18:06.514Z,36.55
2018-04-15T17:20:34.864Z,36.07
2018-04-15T17:23:04.307Z,36.81
2018-04-15T17:25:32.877Z,36.78
2018-04-15T17:28:01.312Z,36.52
2018-04-15T17:30:29.683Z,37.39
2018-04-15T17:32:58.064Z,37.35
2018-04-15T17:35:26.470Z,37.10
2018-04-15T17:37:55.138Z,38.31
2018-04-15T17:40:23.525Z,37.79
2018-04-15T17:42:51.952Z,38.40
2018-04-15T17:45:20.376Z,38.54
2018-04-15T17:47:48.872Z,38.75
2018-04-15T17:50:17.279Z,41.05
2018-04-15T17:52:47.832Z,41.50
2018-04-15T17:55:17.680Z,41.17
2018-04-15T17:57:46.135Z,41.29
2018-04-15T18:00:14.538Z,41.76
2018-04-15T18:02:45.643Z,43.44
2018-04-15T18:05:14.126Z,44.01
2018-04-15T18:07:42.506Z,44.13
2018-04-15T18:10:10.958Z,44.76
2018-04-15T18:12:39.822Z,46.60
2018-04-15T18:18:44.184Z,50.14
2018-04-15T18:21:12.739Z,49.78
2018-04-15T18:23:41.154Z,48.74
2018-04-15T18:26:09.640Z,48.38
2018-04-15T18:28:39.469Z,47.72
2018-04-15T18:31:07.951Z,48.55
2018-04-15T18:33:36.439Z,48.07
2018-04-15T18:36:04.876Z,49.33
2018-04-15T18:38:33.810Z,50.35
2018-04-15T18:41:02.305Z,50.70
2018-04-15T18:43:30.853Z,51.04
2018-04-15T18:45:59.289Z,51.06
2018-04-15T18:48:27.717Z,51.79
2018-04-15T18:50:56.125Z,51.11
2018-04-15T18:53:24.529Z,51.68
2018-04-15T18:55:53.049Z,52.11
2018-04-15T18:58:21.986Z,51.06
2018-04-15T19:00:50.399Z,50.40
2018-04-15T19:03:18.809Z,50.87
2018-04-15T19:05:48.696Z,52.83
2018-04-15T19:08:17.260Z,51.72
2018-04-15T19:10:45.782Z,51.93
2018-04-15T19:13:14.236Z,52.13
2018-04-15T19:15:42.951Z,51.81
2018-04-15T19:18:11.341Z,51.89
2018-04-15T19:20:39.708Z,51.99
2018-04-15T19:23:08.191Z,52.74
2018-04-15T19:25:36.567Z,53.79
2018-04-15T19:28:05.186Z,53.67
2018-04-15T19:30:33.582Z,53.14
2018-04-15T19:33:01.972Z,54.67
2018-04-15T19:35:30.614Z,54.73
2018-04-15T19:37:59.010Z,54.90
2018-04-15T19:40:27.425Z,54.50
2018-04-15T19:42:57.356Z,54.49
2018-04-15T19:45:25.938Z,54.58
2018-04-15T19:47:54.422Z,54.08
2018-04-15T19:50:22.857Z,53.57
2018-04-15T19:52:51.267Z,55.41
2018-04-15T19:55:19.955Z,55.21
2018-04-15T19:57:48.434Z,54.78
2018-04-15T20:00:16.823Z,55.39
2018-04-15T20:02:45.272Z,54.86
2018-04-15T20:05:13.721Z,55.50
2018-04-15T20:07:42.090Z,55.87
2018-04-15T20:10:10.543Z,54.67
2018-04-15T20:12:38.949Z,55.46
2018-04-15T20:15:07.402Z,55.63
2018-04-15T20:17:36.489Z,56.08
2018-04-15T20:20:05.076Z,55.89
2018-04-15T20:22:33.492Z,55.79
2018-04-15T20:25:01.894Z,54.99
2018-04-15T20:27:30.328Z,55.92
2018-04-15T20:29:58.771Z,55.72
2018-04-15T20:32:27.175Z,54.42
2018-04-15T20:34:55.661Z,54.04
2018-04-15T20:37:24.119Z,53.95
2018-04-15T20:39:52.722Z,54.55
2018-04-15T20:42:23.453Z,54.11
2018-04-15T20:44:52.228Z,52.69
2018-04-15T20:47:21.197Z,53.53
2018-04-15T20:49:49.728Z,53.97
2018-04-15T20:52:18.140Z,54.94
2018-04-15T20:54:46.672Z,55.48
2018-04-15T20:57:15.112Z,54.32
2018-04-15T20:59:43.491Z,55.22
2018-04-15T21:02:11.963Z,56.44
2018-04-15T21:04:40.427Z,56.20
2018-04-15T21:07:08.822Z,55.68
2018-04-15T21:09:37.229Z,55.12
2018-04-15T21:12:05.692Z,54.80
2018-04-15T21:14:34.074Z,54.73
2018-04-15T21:17:02.487Z,54.96
2018-04-15T21:19:30.860Z,55.11
2018-04-15T21:21:59.250Z,54.53
2018-04-15T21:24:27.680Z,55.63
2018-04-15T21:26:56.159Z,54.42
2018-04-15T21:29:24.520Z,55.48
2018-04-15T21:31:52.885Z,55.03
2018-04-15T21:34:21.604Z,54.85
2018-04-15T21:36:49.967Z,55.54
2018-04-15T21:39:18.453Z,54.03
2018-04-15T21:41:46.834Z,53.99
2018-04-15T21:44:15.232Z,55.28
2018-04-15T21:46:43.637Z,55.78
2018-04-15T21:49:12.188Z,56.65
2018-04-15T21:51:41.156Z,56.42
2018-04-15T21:54:09.620Z,55.99
2018-04-15T21:56:38.184Z,55.27
2018-04-15T21:59:06.573Z,56.37
2018-04-15T22:01:35.311Z,56.51
2018-04-15T22:04:03.803Z,56.05
2018-04-15T22:06:32.575Z,55.89
2018-04-15T22:09:01.135Z,56.38
2018-04-15T22:11:41.071Z,55.67
2018-04-15T22:14:09.575Z,55.21
2018-04-15T22:16:37.934Z,55.42
2018-04-15T22:19:06.445Z,55.69
2018-04-15T22:21:34.863Z,55.15
2018-04-15T22:24:04.010Z,56.57
2018-04-15T22:26:32.808Z,55.21
2018-04-15T22:29:01.167Z,56.29
2018-04-15T22:31:29.563Z,56.02
2018-04-15T22:33:57.968Z,55.30
2018-04-15T22:36:26.333Z,55.24
2018-04-15T22:38:54.801Z,56.34
2018-04-15T22:41:23.195Z,56.46
2018-04-15T22:43:51.593Z,58.69
2018-04-15T22:46:19.959Z,60.20
2018-04-15T22:48:48.404Z,60.20
2018-04-15T22:51:19.048Z,58.87
2018-04-15T22:53:47.409Z,58.39
2018-04-15T22:56:15.827Z,57.50
2018-04-15T22:58:47.071Z,58.04
2018-04-15T23:01:16.393Z,58.96
2018-04-15T23:03:44.785Z,58.70
2018-04-15T23:06:13.222Z,57.91
2018-04-15T23:08:41.597Z,59.42
2018-04-15T23:11:09.981Z,58.21
2018-04-15T23:13:38.753Z,59.12
2018-04-15T23:16:07.123Z,59.38
2018-04-15T23:18:35.495Z,58.37
2018-04-15T23:21:03.850Z,58.51
2018-04-15T23:23:32.239Z,57.97
2018-04-15T23:26:00.748Z,57.32
2018-04-15T23:28:29.152Z,56.45
2018-04-15T23:30:57.576Z,56.12
2018-04-15T23:33:26.182Z,57.12
2018-04-15T23:35:54.601Z,57.14
2018-04-15T23:38:23.011Z,57.31
2018-04-15T23:40:51.764Z,58.29
2018-04-15T23:43:20.399Z,58.39
2018-04-15T23:45:48.768Z,57.89
2018-04-15T23:48:17.132Z,59.13
2018-04-15T23:50:45.505Z,59.81
2018-04-15T23:53:13.935Z,59.46
2018-04-15T23:55:42.312Z,57.67
2018-04-15T23:58:10.686Z,58.72
